< < Back
Terminal Aerodrome Forecast


Current Version              Previous Versions:   1  2  3  4  5  6  7  8  9  

Terminal Aerodrome Forecast

409
FTUS44 KMOB 270500
TAFPNS
TAF
KPNS 270537Z 2706/2806 03008KT P6SM SCT020 BKN150
     FM271500 02010G18KT P6SM SCT020 SCT150=

Latest METAR

372
SAUS70 KWBC 270600 RRJ
MTRPNS
METAR KPNS 270553Z AUTO 01006KT 10SM CLR 04/01 A3024 RMK AO2 SLP242
T00390011 10061 20033 400890028 51020


USA.gov is the U.S. government's official web portal to all federal, state and local government web resources and services.